Time;durP1;ratioP1;P1;durP2;ratioP2;P2;SDS_P1;SDS_P2;PMS_P1;PMS_P2;Temp;Humidity;BMP_temperature;BMP_pressure;BME280_temperature;BME280_humidity;BME280_pressure;Samples;Min_cycle;Max_cycle;Signal;HPM_P1;HPM_P2
2024/01/01 00:01:47;;;;;;;;;;;7.20;1.00;;;;;;5099207;28;19912;-81
2024/01/01 00:13:47;;;;;;;;;;;7.30;1.00;;;;;;5118950;28;19922;-82
2024/01/01 00:16:13;;;;;;;;;;;7.40;1.00;;;;;;5115647;28;19958;-73
2024/01/01 00:18:39;;;;;;;;;;;7.40;1.00;;;;;;5101656;28;19914;-72
2024/01/01 00:21:05;;;;;;;;;;;7.40;1.00;;;;;;5114072;28;19908;-72
2024/01/01 00:23:47;;;;;;;;;;;;;;;;;;5106659;28;20258;-74
2024/01/01 00:26:13;;;;;;;;;;;;;;;;;;5107635;28;19922;-73
2024/01/01 00:28:38;;;;;;;;;;;7.40;1.00;;;;;;5106197;28;19912;-74
2024/01/01 00:31:05;;;;;;;;;;;7.50;1.00;;;;;;5100727;28;19998;-74
2024/01/01 00:33:35;;;;;;;;;;;7.50;1.00;;;;;;5120876;28;19919;-74
2024/01/01 00:36:00;;;;;;;;;;;7.40;1.00;;;;;;5113336;28;19991;-74
2024/01/01 00:38:35;;;;;;;;;;;;;;;;;;5104464;28;19946;-74
2024/01/01 00:41:00;;;;;;;;;;;7.50;1.00;;;;;;5095437;28;19908;-74
2024/01/01 00:46:11;;;;;;;;;;;7.40;1.00;;;;;;5101281;28;20278;-82
2024/01/01 00:54:47;;;;;;;;;;;7.40;1.00;;;;;;5107591;28;19918;-81
2024/01/01 00:57:47;;;;;;;;;;;7.50;1.00;;;;;;5101250;28;19912;-81
2024/01/01 01:00:17;;;;;;;;;;;7.50;1.00;;;;;;5092850;28;19915;-81
2024/01/01 01:06:17;;;;;;;;;;;7.40;1.00;;;;;;5105298;28;19970;-81
2024/01/01 01:08:47;;;;;;;;;;;7.30;1.00;;;;;;5118006;27;19912;-81
2024/01/01 01:11:37;;;;;;;;;;;7.20;1.00;;;;;;5117521;28;19909;-81
2024/01/01 01:14:23;;;;;;;;;;;7.10;1.00;;;;;;5106849;28;20355;-81
2024/01/01 01:16:53;;;;;;;;;;;7.00;1.00;;;;;;5118345;27;19907;-74
2024/01/01 01:19:23;;;;;;;;;;;6.90;1.00;;;;;;5110494;28;19951;-74
2024/01/01 01:21:59;;;;;;;;;;;6.90;1.00;;;;;;5104199;28;19947;-74
2024/01/01 01:24:24;;;;;;;;;;;7.00;1.00;;;;;;5103802;28;19908;-74
2024/01/01 01:26:53;;;;;;;;;;;7.10;1.00;;;;;;5104982;28;20011;-74
2024/01/01 01:29:29;;;;;;;;;;;7.20;1.00;;;;;;5100265;28;19912;-74
2024/01/01 01:31:54;;;;;;;;;;;7.20;1.00;;;;;;5106655;28;19911;-73
2024/01/01 01:34:29;;;;;;;;;;;7.30;1.00;;;;;;5088478;28;19981;-74
2024/01/01 01:37:05;;;;;;;;;;;7.30;1.00;;;;;;5107998;28;19914;-74
2024/01/01 01:39:35;;;;;;;;;;;7.30;1.00;;;;;;5103028;28;19908;-74
2024/01/01 01:42:01;;;;;;;;;;;7.40;1.00;;;;;;5112241;27;20454;-73
2024/01/01 01:44:28;;;;;;;;;;;7.40;1.00;;;;;;5103931;27;19991;-73
2024/01/01 01:49:57;;;;;;;;;;;7.40;1.00;;;;;;5118120;27;19919;-81
2024/01/01 01:52:47;;;;;;;;;;;7.50;1.00;;;;;;5107048;27;20366;-82
2024/01/01 01:55:47;;;;;;;;;;;7.60;1.00;;;;;;5091766;28;19919;-82
2024/01/01 01:58:17;;;;;;;;;;;7.60;1.00;;;;;;5109420;28;19907;-81
2024/01/01 02:00:47;;;;;;;;;;;7.60;1.00;;;;;;5110621;28;19912;-82
2024/01/01 02:03:47;;;;;;;;;;;7.60;1.00;;;;;;5102883;28;19908;-81
2024/01/01 02:06:47;;;;;;;;;;;7.50;1.00;;;;;;5089999;28;20010;-82
2024/01/01 02:09:23;;;;;;;;;;;7.50;1.00;;;;;;5103415;28;19914;-82
2024/01/01 02:12:17;;;;;;;;;;;7.50;1.00;;;;;;5108277;28;19912;-82
2024/01/01 02:14:48;;;;;;;;;;;7.50;1.00;;;;;;5117784;27;19965;-82
2024/01/01 02:23:16;;;;;;;;;;;7.50;1.00;;;;;;5095924;28;19931;-82
2024/01/01 02:25:47;;;;;;;;;;;;;;;;;;5116230;27;19963;-82
2024/01/01 02:28:17;;;;;;;;;;;7.50;1.00;;;;;;5077664;28;19912;-82
2024/01/01 02:30:43;;;;;;;;;;;7.60;1.00;;;;;;5110454;28;19908;-74
2024/01/01 02:33:09;;;;;;;;;;;7.50;1.00;;;;;;5115448;28;19915;-74
2024/01/01 02:35:35;;;;;;;;;;;7.50;1.00;;;;;;5114339;28;19911;-74
2024/01/01 02:38:11;;;;;;;;;;;;;;;;;;5103768;28;19912;-74
2024/01/01 02:40:37;;;;;;;;;;;7.50;1.00;;;;;;5114401;28;19946;-74
2024/01/01 02:43:03;;;;;;;;;;;;;;;;;;5106507;28;20129;-74
2024/01/01 02:45:59;;;;;;;;;;;7.50;1.00;;;;;;5121970;27;20352;-82
2024/01/01 03:00:36;;;;;;;;;;;7.50;1.00;;;;;;5107391;27;19934;-75
2024/01/01 03:03:03;;;;;;;;;;;7.60;1.00;;;;;;5098970;28;19912;-73
2024/01/01 03:05:28;;;;;;;;;;;7.60;1.00;;;;;;5114151;28;19962;-73
2024/01/01 03:07:59;;;;;;;;;;;7.60;1.00;;;;;;5102235;28;19908;-73
2024/01/01 03:10:24;;;;;;;;;;;7.60;1.00;;;;;;5114941;28;20493;-73
2024/01/01 03:12:50;;;;;;;;;;;;;;;;;;5114455;27;19912;-73
2024/01/01 03:15:16;;;;;;;;;;;7.50;1.00;;;;;;5098958;27;19918;-74
2024/01/01 03:17:42;;;;;;;;;;;7.40;1.00;;;;;;5116736;27;19916;-73
2024/01/01 03:22:42;;;;;;;;;;;7.40;1.00;;;;;;5108947;28;20024;-74
2024/01/01 03:25:09;;;;;;;;;;;7.40;1.00;;;;;;5114917;28;20039;-73
2024/01/01 03:27:35;;;;;;;;;;;7.30;1.00;;;;;;5100818;28;20318;-74
2024/01/01 03:30:01;;;;;;;;;;;7.40;1.00;;;;;;5096459;28;19907;-74
2024/01/01 03:32:47;;;;;;;;;;;7.40;1.00;;;;;;5104019;28;19999;-81
2024/01/01 03:35:19;;;;;;;;;;;7.40;1.00;;;;;;5113492;27;20355;-81
2024/01/01 03:38:17;;;;;;;;;;;7.30;1.00;;;;;;5112049;27;19908;-82
2024/01/01 03:40:53;;;;;;;;;;;7.30;1.00;;;;;;5107969;28;20006;-82
2024/01/01 03:43:19;;;;;;;;;;;7.30;1.00;;;;;;5096125;28;20355;-81
2024/01/01 03:45:44;;;;;;;;;;;7.30;1.00;;;;;;5108165;28;20015;-75
2024/01/01 03:48:10;;;;;;;;;;;7.40;1.00;;;;;;5105058;28;19953;-74
2024/01/01 03:50:36;;;;;;;;;;;7.40;1.00;;;;;;5099909;28;19922;-74
2024/01/01 03:53:35;;;;;;;;;;;7.40;1.00;;;;;;5099343;28;20014;-74
2024/01/01 03:56:01;;;;;;;;;;;7.30;1.00;;;;;;5110397;28;19912;-74
2024/01/01 03:58:26;;;;;;;;;;;7.40;1.00;;;;;;5098973;28;20386;-74
2024/01/01 04:00:53;;;;;;;;;;;7.40;1.00;;;;;;5103251;28;19908;-75
2024/01/01 04:03:23;;;;;;;;;;;7.40;1.00;;;;;;5098319;28;19908;-75
2024/01/01 04:05:48;;;;;;;;;;;7.40;1.00;;;;;;5109433;28;19915;-74
2024/01/01 04:08:14;;;;;;;;;;;7.50;1.00;;;;;;5111397;28;19918;-74
2024/01/01 04:10:40;;;;;;;;;;;7.50;1.00;;;;;;5105366;28;19915;-74
2024/01/01 04:13:06;;;;;;;;;;;7.60;1.00;;;;;;5095181;28;19908;-75
2024/01/01 04:15:31;;;;;;;;;;;7.60;1.00;;;;;;5113988;28;19965;-74
2024/01/01 04:18:17;;;;;;;;;;;7.60;1.00;;;;;;5097037;28;19908;-82
2024/01/01 04:21:17;;;;;;;;;;;7.60;1.00;;;;;;5102886;28;19919;-82
2024/01/01 04:24:17;;;;;;;;;;;7.50;1.00;;;;;;5082023;28;19908;-82
2024/01/01 04:27:18;;;;;;;;;;;7.70;1.00;;;;;;5098023;28;19912;-82
2024/01/01 04:30:11;;;;;;;;;;;7.70;1.00;;;;;;5093259;28;19912;-82
2024/01/01 04:32:36;;;;;;;;;;;7.70;1.00;;;;;;5101199;28;19966;-74
2024/01/01 04:35:17;;;;;;;;;;;7.80;1.00;;;;;;5108493;28;19939;-75
2024/01/01 04:37:43;;;;;;;;;;;7.90;1.00;;;;;;5121655;27;19915;-74
2024/01/01 04:40:17;;;;;;;;;;;7.80;1.00;;;;;;5107741;28;20275;-74
2024/01/01 04:42:43;;;;;;;;;;;7.90;1.00;;;;;;5117111;28;19908;-74
2024/01/01 04:45:17;;;;;;;;;;;7.80;1.00;;;;;;5118085;28;19919;-74
2024/01/01 04:47:53;;;;;;;;;;;;;;;;;;5125222;27;20373;-74
2024/01/01 04:50:18;;;;;;;;;;;7.70;1.00;;;;;;5084475;28;19916;-75
2024/01/01 04:52:45;;;;;;;;;;;;;;;;;;5105368;28;19912;-74
2024/01/01 04:55:11;;;;;;;;;;;7.80;1.00;;;;;;5115063;28;19912;-74
2024/01/01 04:57:41;;;;;;;;;;;7.80;1.00;;;;;;5104080;28;19919;-74
2024/01/01 05:00:07;;;;;;;;;;;7.80;1.00;;;;;;5110747;28;19912;-74
2024/01/01 05:02:41;;;;;;;;;;;7.80;1.00;;;;;;5097515;28;19908;-75
2024/01/01 05:05:10;;;;;;;;;;;7.70;1.00;;;;;;5113567;28;20048;-74
2024/01/01 05:07:36;;;;;;;;;;;7.60;1.00;;;;;;5107908;28;20355;-73
2024/01/01 05:10:11;;;;;;;;;;;;;;;;;;5113942;28;20358;-75
2024/01/01 05:12:41;;;;;;;;;;;;;;;;;;5122368;27;19918;-74
2024/01/01 05:15:11;;;;;;;;;;;;;;;;;;5110810;28;19983;-74
2024/01/01 05:17:41;;;;;;;;;;;;;;;;;;5098047;28;19948;-74
2024/01/01 05:20:07;;;;;;;;;;;7.50;1.00;;;;;;5118303;27;19911;-74
2024/01/01 05:22:47;;;;;;;;;;;7.30;1.00;;;;;;5085682;28;19923;-74
2024/01/01 05:25:17;;;;;;;;;;;7.20;1.00;;;;;;5096770;28;19943;-74
2024/01/01 05:27:47;;;;;;;;;;;;;;;;;;5109568;27;19999;-74
2024/01/01 05:30:31;;;;;;;;;;;7.10;1.00;;;;;;5117123;28;19962;-74
2024/01/01 05:32:59;;;;;;;;;;;7.00;1.00;;;;;;5085581;28;20366;-82
2024/01/01 05:38:35;;;;;;;;;;;6.90;1.00;;;;;;5116610;27;19919;-82
2024/01/01 05:47:11;;;;;;;;;;;6.80;1.00;;;;;;5113441;27;20315;-74
2024/01/01 05:49:37;;;;;;;;;;;;;;;;;;5102492;27;20075;-74
2024/01/01 05:52:03;;;;;;;;;;;6.80;1.00;;;;;;5127860;27;19919;-74
2024/01/01 05:54:48;;;;;;;;;;;6.80;1.00;;;;;;5108812;28;19915;-74
2024/01/01 05:57:17;;;;;;;;;;;6.70;1.00;;;;;;5113416;28;20003;-74
2024/01/01 05:59:47;;;;;;;;;;;6.80;1.00;;;;;;5110687;27;19951;-74
2024/01/01 06:02:35;;;;;;;;;;;6.80;1.00;;;;;;5102835;28;19908;-81
2024/01/01 06:05:01;;;;;;;;;;;6.80;1.00;;;;;;5102774;27;20018;-81
2024/01/01 06:07:47;;;;;;;;;;;6.80;1.00;;;;;;5110926;28;20049;-81
2024/01/01 06:10:17;;;;;;;;;;;6.80;1.00;;;;;;5117434;27;19908;-81
2024/01/01 06:12:47;;;;;;;;;;;6.80;1.00;;;;;;5105265;28;20367;-82
2024/01/01 06:15:17;;;;;;;;;;;6.90;1.00;;;;;;5114202;28;19908;-81
2024/01/01 06:30:17;;;;;;;;;;;6.90;1.00;;;;;;5116652;28;20339;-81
2024/01/01 06:32:47;;;;;;;;;;;6.80;1.00;;;;;;5102262;28;19908;-81
2024/01/01 06:44:17;;;;;;;;;;;6.70;1.00;;;;;;5100073;28;19912;-81
2024/01/01 06:46:47;;;;;;;;;;;6.60;1.00;;;;;;5109881;28;20029;-81
2024/01/01 06:49:13;;;;;;;;;;;;;;;;;;5106883;28;19912;-74
2024/01/01 06:51:48;;;;;;;;;;;6.60;1.00;;;;;;5102233;28;19916;-74
2024/01/01 06:54:14;;;;;;;;;;;;;;;;;;5106364;27;19963;-74
2024/01/01 06:56:41;;;;;;;;;;;6.60;1.00;;;;;;5095392;28;19961;-74
2024/01/01 06:59:17;;;;;;;;;;;6.60;1.00;;;;;;5108135;28;19912;-74
2024/01/01 07:01:47;;;;;;;;;;;;;;;;;;5096945;28;20421;-74
2024/01/01 07:04:18;;;;;;;;;;;6.60;1.00;;;;;;5106299;28;20029;-82
2024/01/01 07:07:05;;;;;;;;;;;6.60;1.00;;;;;;5108209;28;20002;-81
2024/01/01 07:12:34;;;;;;;;;;;6.70;1.00;;;;;;5103933;28;19920;-81
2024/01/01 07:15:17;;;;;;;;;;;6.80;1.00;;;;;;5095322;28;20318;-81
2024/01/01 07:17:47;;;;;;;;;;;6.80;1.00;;;;;;5115150;27;19912;-81
2024/01/01 07:20:47;;;;;;;;;;;6.70;1.00;;;;;;5101653;28;20071;-81
2024/01/01 07:23:47;;;;;;;;;;;6.60;1.00;;;;;;5101147;28;19959;-81
2024/01/01 07:26:47;;;;;;;;;;;6.60;1.00;;;;;;5100014;28;19923;-81
2024/01/01 07:29:47;;;;;;;;;;;6.60;1.00;;;;;;5120383;27;19999;-81
2024/01/01 07:32:17;;;;;;;;;;;6.50;1.00;;;;;;5093910;28;19912;-80
2024/01/01 07:35:18;;;;;;;;;;;6.50;1.00;;;;;;5103559;28;19915;-81
2024/01/01 07:38:17;;;;;;;;;;;6.40;1.00;;;;;;5082551;28;20375;-81
2024/01/01 07:41:17;;;;;;;;;;;6.40;1.00;;;;;;5114742;28;20032;-82
2024/01/01 07:43:47;;;;;;;;;;;6.50;1.00;;;;;;5104666;27;19930;-82
2024/01/01 07:46:17;;;;;;;;;;;6.50;1.00;;;;;;5111629;28;19915;-76
2024/01/01 07:48:47;;;;;;;;;;;6.60;1.00;;;;;;5114125;28;20003;-76
2024/01/01 07:51:17;;;;;;;;;;;6.60;1.00;;;;;;5094403;28;20275;-78
2024/01/01 07:54:17;;;;;;;;;;;6.70;1.00;;;;;;5094467;28;19930;-81
2024/01/01 07:56:53;;;;;;;;;;;6.80;1.00;;;;;;5093499;28;19912;-75
2024/01/01 08:02:18;;;;;;;;;;;6.80;1.00;;;;;;5112096;28;20328;-76
2024/01/01 08:04:47;;;;;;;;;;;6.80;1.00;;;;;;5105563;28;19908;-83
2024/01/01 08:07:47;;;;;;;;;;;6.80;1.00;;;;;;5105735;28;19912;-83
2024/01/01 08:10:47;;;;;;;;;;;6.80;1.00;;;;;;5086872;28;19914;-82
2024/01/01 08:13:47;;;;;;;;;;;6.90;1.00;;;;;;5087151;28;20025;-84
2024/01/01 08:16:19;;;;;;;;;;;7.00;1.00;;;;;;5098601;28;19911;-83
2024/01/01 08:18:48;;;;;;;;;;;7.00;1.00;;;;;;5107681;27;20362;-82
2024/01/01 08:21:17;;;;;;;;;;;7.00;1.00;;;;;;5136233;27;19930;-77
2024/01/01 08:23:48;;;;;;;;;;;7.00;1.00;;;;;;5113358;28;20057;-76
2024/01/01 08:26:13;;;;;;;;;;;7.00;1.00;;;;;;5103382;28;19931;-76
2024/01/01 08:28:51;;;;;;;;;;;7.00;1.00;;;;;;5120881;27;19912;-79
2024/01/01 08:34:19;;;;;;;;;;;7.00;1.00;;;;;;5106364;27;20373;-79
2024/01/01 08:36:47;;;;;;;;;;;;;;;;;;5107292;28;19908;-78
2024/01/01 08:39:41;;;;;;;;;;;6.90;1.00;;;;;;5111366;28;20020;-78
2024/01/01 08:42:07;;;;;;;;;;;6.90;1.00;;;;;;5115122;27;19919;-77
2024/01/01 08:44:33;;;;;;;;;;;;;;;;;;5117906;27;19912;-77
2024/01/01 08:47:17;;;;;;;;;;;6.90;1.00;;;;;;5109343;28;19912;-77
2024/01/01 08:49:43;;;;;;;;;;;6.90;1.00;;;;;;5107907;28;19923;-80
2024/01/01 08:52:17;;;;;;;;;;;7.10;1.00;;;;;;5116148;27;19916;-80
2024/01/01 08:57:47;;;;;;;;;;;7.30;1.00;;;;;;5097290;28;20019;-81
2024/01/01 09:03:23;;;;;;;;;;;7.40;1.00;;;;;;5114913;27;19968;-81
2024/01/01 09:06:11;;;;;;;;;;;7.40;1.00;;;;;;5106907;28;19911;-80
2024/01/01 09:08:47;;;;;;;;;;;7.50;1.00;;;;;;5104002;28;19908;-84
2024/01/01 09:11:23;;;;;;;;;;;7.50;1.00;;;;;;5099379;28;19998;-82
2024/01/01 09:16:34;;;;;;;;;;;;;;;;;;5100267;28;20370;-76
2024/01/01 09:21:44;;;;;;;;;;;7.90;1.00;;;;;;5117492;28;19951;-83
2024/01/01 09:24:47;;;;;;;;;;;8.00;1.00;;;;;;5105859;27;19952;-81
2024/01/01 09:27:47;;;;;;;;;;;8.00;1.00;;;;;;5108429;27;19964;-80
2024/01/01 09:30:47;;;;;;;;;;;8.00;1.00;;;;;;5099236;28;19912;-83
2024/01/01 09:33:17;;;;;;;;;;;8.10;1.00;;;;;;5098907;28;19914;-83
2024/01/01 09:36:17;;;;;;;;;;;8.20;1.00;;;;;;5116054;28;19915;-83
2024/01/01 09:38:47;;;;;;;;;;;8.30;1.00;;;;;;5096931;28;19957;-83
2024/01/01 09:41:17;;;;;;;;;;;8.50;1.00;;;;;;5085394;28;19915;-83
2024/01/01 09:46:46;;;;;;;;;;;8.50;1.00;;;;;;5106063;28;19961;-83
2024/01/01 09:49:17;;;;;;;;;;;8.60;1.00;;;;;;5102218;28;19915;-83
2024/01/01 09:52:17;;;;;;;;;;;8.50;1.00;;;;;;5103644;28;19995;-76
2024/01/01 09:54:47;;;;;;;;;;;8.40;1.00;;;;;;5107031;27;19939;-77
2024/01/01 09:57:17;;;;;;;;;;;8.50;1.00;;;;;;5115284;27;19951;-77
2024/01/01 09:59:47;;;;;;;;;;;8.40;1.00;;;;;;5086098;27;19912;-76
2024/01/01 10:02:47;;;;;;;;;;;8.30;1.00;;;;;;5099745;28;20423;-76
2024/01/01 10:05:17;;;;;;;;;;;8.40;1.00;;;;;;5109870;28;19908;-78
2024/01/01 10:07:47;;;;;;;;;;;8.40;1.00;;;;;;5106935;28;19914;-77
2024/01/01 10:10:17;;;;;;;;;;;;;;;;;;5102727;27;19907;-76
2024/01/01 10:13:17;;;;;;;;;;;8.60;1.00;;;;;;5103755;28;20010;-78
2024/01/01 10:15:43;;;;;;;;;;;8.60;1.00;;;;;;5108439;28;20359;-77
2024/01/01 10:18:17;;;;;;;;;;;8.50;1.00;;;;;;5099083;28;19916;-77
2024/01/01 10:20:47;;;;;;;;;;;8.50;1.00;;;;;;5107472;28;19908;-78
2024/01/01 10:23:25;;;;;;;;;;;8.60;1.00;;;;;;5115861;28;19908;-77
2024/01/01 10:26:17;;;;;;;;;;;8.50;1.00;;;;;;5101443;28;19920;-76
2024/01/01 10:29:19;;;;;;;;;;;8.40;1.00;;;;;;5107889;27;19953;-76
2024/01/01 10:31:48;;;;;;;;;;;;;;;;;;5104068;28;19912;-75
2024/01/01 10:34:18;;;;;;;;;;;8.30;1.00;;;;;;5128409;27;20354;-76
2024/01/01 10:36:47;;;;;;;;;;;8.30;1.00;;;;;;5106206;28;19912;-76
2024/01/01 10:42:16;;;;;;;;;;;8.50;1.00;;;;;;5117238;27;19930;-76
2024/01/01 10:44:47;;;;;;;;;;;8.40;1.00;;;;;;5112244;27;20363;-77
2024/01/01 10:47:19;;;;;;;;;;;8.40;1.00;;;;;;5098009;28;19958;-76
2024/01/01 10:49:50;;;;;;;;;;;8.50;1.00;;;;;;5113544;27;19912;-76
2024/01/01 10:52:48;;;;;;;;;;;8.50;1.00;;;;;;5109486;28;19944;-85
2024/01/01 10:58:17;;;;;;;;;;;;;;;;;;5115415;28;19914;-82
2024/01/01 11:03:48;;;;;;;;;;;8.60;1.00;;;;;;5096220;28;20394;-82
2024/01/01 11:06:41;;;;;;;;;;;8.60;1.00;;;;;;5107612;28;19912;-75
2024/01/01 11:09:23;;;;;;;;;;;8.70;1.00;;;;;;5094934;28;19912;-75
2024/01/01 11:12:01;;;;;;;;;;;8.70;1.00;;;;;;5113310;28;19958;-75
2024/01/01 11:14:30;;;;;;;;;;;8.70;1.00;;;;;;5102150;28;19908;-75
2024/01/01 11:17:09;;;;;;;;;;;8.80;1.00;;;;;;5094819;28;20030;-74
2024/01/01 11:22:47;;;;;;;;;;;8.80;1.00;;;;;;5119530;27;19915;-81
2024/01/01 11:25:47;;;;;;;;;;;8.80;1.00;;;;;;5107844;28;19919;-82
2024/01/01 11:34:23;;;;;;;;;;;8.90;1.00;;;;;;5101075;28;19915;-80
2024/01/01 11:36:49;;;;;;;;;;;8.90;1.00;;;;;;5104274;28;19908;-74
2024/01/01 11:39:15;;;;;;;;;;;8.90;1.00;;;;;;5108038;28;19995;-75
2024/01/01 11:41:47;;;;;;;;;;;9.00;1.00;;;;;;5095332;28;19912;-74
2024/01/01 11:44:14;;;;;;;;;;;9.00;1.00;;;;;;5099164;28;19915;-74
2024/01/01 11:46:40;;;;;;;;;;;9.00;1.00;;;;;;5103186;28;19912;-72
2024/01/01 11:49:07;;;;;;;;;;;8.90;1.00;;;;;;5108037;28;19909;-75
2024/01/01 11:51:50;;;;;;;;;;;9.00;1.00;;;;;;5106169;28;19920;-75
2024/01/01 11:54:17;;;;;;;;;;;9.00;1.00;;;;;;5107149;28;20417;-76
2024/01/01 12:00:11;;;;;;;;;;;9.10;1.00;;;;;;5114349;28;19915;-75
2024/01/01 12:02:37;;;;;;;;;;;9.20;1.00;;;;;;5097745;28;20144;-75
2024/01/01 12:05:20;;;;;;;;;;;9.30;1.00;;;;;;5096596;28;20457;-75
2024/01/01 12:08:11;;;;;;;;;;;9.20;1.00;;;;;;5103384;28;19918;-75
2024/01/01 12:10:37;;;;;;;;;;;9.20;1.00;;;;;;5094360;28;20355;-74
2024/01/01 12:13:03;;;;;;;;;;;9.30;1.00;;;;;;5104503;28;19959;-75
2024/01/01 12:15:51;;;;;;;;;;;9.30;1.00;;;;;;5104342;28;19977;-75
2024/01/01 12:18:16;;;;;;;;;;;9.30;1.00;;;;;;5094219;28;19908;-75
2024/01/01 12:20:57;;;;;;;;;;;9.20;1.00;;;;;;5094834;28;19912;-75
2024/01/01 12:23:47;;;;;;;;;;;9.10;1.00;;;;;;5094013;28;19908;-82
2024/01/01 12:26:17;;;;;;;;;;;;;;;;;;5088513;28;19916;-81
2024/01/01 12:29:19;;;;;;;;;;;9.00;1.00;;;;;;5104386;28;19911;-82
2024/01/01 12:35:18;;;;;;;4.13;1.00;;;;;;;;;;5110365;28;20590;-81
2024/01/01 12:38:05;;;;;;;3.92;1.10;;;9.00;1.00;;;;;;5075163;28;20438;-81
2024/01/01 12:40:48;;;;;;;10.03;2.13;;;9.00;1.00;;;;;;5106043;28;20169;-81
2024/01/01 12:43:47;;;;;;;6.60;1.43;;;9.00;1.00;;;;;;5095213;28;20514;-81
2024/01/01 12:46:47;;;;;;;2.13;0.73;;;8.90;1.00;;;;;;5113428;28;20455;-81
2024/01/01 12:49:22;;;;;;;8.80;1.43;;;8.90;1.00;;;;;;5115040;28;20408;-81
2024/01/01 12:51:48;;;;;;;7.78;1.30;;;8.90;1.00;;;;;;5098887;28;20419;-75
2024/01/01 12:54:14;;;;;;;;;;;9.00;1.00;;;;;;5097008;28;20572;-75
2024/01/01 12:56:41;;;;;;;;;;;8.90;1.00;;;;;;5112864;28;19911;-75
2024/01/01 12:59:07;;;;;;;;;;;8.90;1.00;;;;;;5111364;28;19956;-76
2024/01/01 13:01:33;;;;;;;;;;;8.80;1.00;;;;;;5119395;27;19911;-75
2024/01/01 13:03:59;;;;;;;;;;;8.90;1.00;;;;;;5111236;27;19908;-75
2024/01/01 13:06:25;;;;;;;;;;;8.90;1.00;;;;;;5122282;27;19916;-75
2024/01/01 13:08:51;;;;;;;;;;;8.90;1.00;;;;;;5122914;27;19920;-82
2024/01/01 13:11:16;;;;;;;;;;;8.80;1.00;;;;;;5099160;28;19919;-81
2024/01/01 13:14:17;;;;;;;;;;;8.80;1.00;;;;;;5098739;28;19916;-82
2024/01/01 13:19:45;;;;;;;;;;;8.80;1.00;;;;;;5113254;28;20316;-82
2024/01/01 13:25:19;;;;;;;;;;;9.00;1.00;;;;;;5096816;28;19916;-82
2024/01/01 13:27:48;;;;;;;;;;;8.90;1.00;;;;;;5104480;28;19994;-82
2024/01/01 13:30:47;;;;;;;;;;;8.80;1.00;;;;;;5107884;27;19919;-81
2024/01/01 13:33:47;;;;;;;;;;;8.80;1.00;;;;;;5101937;27;19908;-81
2024/01/01 13:36:29;;;;;;;;;;;8.70;1.00;;;;;;5096526;28;19908;-82
2024/01/01 13:38:55;;;;;;;;;;;8.70;1.00;;;;;;5099074;28;19912;-81
2024/01/01 13:41:23;;;;;;;;;;;8.70;1.00;;;;;;5091638;28;20026;-81
2024/01/01 13:44:11;;;;;;;;;;;8.70;1.00;;;;;;5099221;28;19912;-82
2024/01/01 13:46:47;;;;;;;;;;;8.70;1.00;;;;;;5096086;28;19930;-81
2024/01/01 13:49:21;;;;;;;;;;;8.70;1.00;;;;;;5110372;27;20006;-82
2024/01/01 13:51:50;;;;;;;;;;;8.70;1.00;;;;;;5116638;28;19937;-82
2024/01/01 13:54:16;;;;;;;;;;;8.80;1.00;;;;;;5096510;28;19912;-75
2024/01/01 13:56:42;;;;;;;;;;;8.80;1.00;;;;;;5112865;28;19934;-75
2024/01/01 13:59:11;;;;;;;;;;;8.70;1.00;;;;;;5097171;28;19931;-75
2024/01/01 14:01:47;;;;;;;;;;;8.80;1.00;;;;;;5112116;28;19912;-75
2024/01/01 14:04:25;;;;;;;;;;;8.90;1.00;;;;;;5117337;27;19912;-75
2024/01/01 14:06:59;;;;;;;;;;;8.90;1.00;;;;;;5114195;28;19916;-75
2024/01/01 14:15:42;;;;;;;;;;;8.80;1.00;;;;;;5103836;28;19919;-82
2024/01/01 14:21:13;;;;;;;;;;;8.80;1.00;;;;;;5096592;28;19919;-82
2024/01/01 14:23:38;;;;;;;;;;;8.70;1.00;;;;;;5104770;28;19908;-74
2024/01/01 14:26:04;;;;;;;;;;;8.70;1.00;;;;;;5099279;27;19919;-74
2024/01/01 14:28:29;;;;;;;;;;;8.70;1.00;;;;;;5102021;27;19912;-74
2024/01/01 14:30:55;;;;;;;;;;;8.60;1.00;;;;;;5100708;28;19931;-74
2024/01/01 14:33:21;;;;;;;;;;;8.70;1.00;;;;;;5095182;28;19912;-74
2024/01/01 14:35:46;;;;;;;;;;;8.60;1.00;;;;;;5112614;27;19915;-74
2024/01/01 14:38:48;;;;;;;;;;;8.70;1.00;;;;;;5103411;28;19923;-81
2024/01/01 14:41:47;;;;;;;;;;;8.60;1.00;;;;;;5108799;28;19952;-81
2024/01/01 14:47:17;;;;;;;;;;;8.70;1.00;;;;;;5108187;27;19922;-81
2024/01/01 14:49:43;;;;;;;;;;;8.70;1.00;;;;;;5115531;28;19927;-81
2024/01/01 14:52:17;;;;;;;;;;;8.60;1.00;;;;;;5120065;27;19915;-81
2024/01/01 14:55:05;;;;;;;;;;;8.60;1.00;;;;;;5103037;28;19912;-75
2024/01/01 14:57:54;;;;;;;;;;;8.50;1.00;;;;;;5119199;27;19945;-75
2024/01/01 15:00:23;;;;;;;;;;;8.50;1.00;;;;;;5120022;27;20198;-75
2024/01/01 15:02:49;;;;;;;;;;;8.50;1.00;;;;;;5115175;28;19907;-75
2024/01/01 15:05:16;;;;;;;;;;;8.50;1.00;;;;;;5111468;28;20063;-75
2024/01/01 15:07:47;;;;;;;;;;;8.50;1.00;;;;;;5108039;27;19915;-80
2024/01/01 15:10:41;;;;;;;;;;;8.50;1.00;;;;;;5105334;27;19911;-81
2024/01/01 15:13:11;;;;;;;;;;;8.40;1.00;;;;;;5118143;27;19912;-81
2024/01/01 15:18:40;;;;;;;;;;;8.40;1.00;;;;;;5101535;28;19915;-82
2024/01/01 15:21:17;;;;;;;;;;;8.50;1.00;;;;;;5112211;27;19912;-82
2024/01/01 15:23:47;;;;;;;;;;;8.50;1.00;;;;;;5098676;28;19912;-82
2024/01/01 15:26:47;;;;;;;;;;;8.50;1.00;;;;;;5112189;27;19915;-82
2024/01/01 15:29:47;;;;;;;;;;;8.40;1.00;;;;;;5088931;28;19915;-82
2024/01/01 15:32:47;;;;;;;;;;;8.40;1.00;;;;;;5084249;28;19916;-81
2024/01/01 15:35:29;;;;;;;;;;;8.40;1.00;;;;;;5114961;27;19916;-81
2024/01/01 15:38:17;;;;;;;;;;;8.40;1.00;;;;;;5094626;28;19912;-80
2024/01/01 15:40:53;;;;;;;;;;;8.30;1.00;;;;;;5114249;28;19916;-74
2024/01/01 15:43:23;;;;;;;;;;;8.30;1.00;;;;;;5107886;27;20015;-74
2024/01/01 15:45:49;;;;;;;;;;;8.30;1.00;;;;;;5107131;28;19923;-74
2024/01/01 15:48:17;;;;;;;;;;;8.30;1.00;;;;;;5110421;28;19912;-74
2024/01/01 15:50:44;;;;;;;;;;;8.20;1.00;;;;;;5113778;28;19923;-74
2024/01/01 15:53:17;;;;;;;;;;;8.20;1.00;;;;;;5111397;28;19923;-75
2024/01/01 15:55:43;;;;;;;;;;;8.20;1.00;;;;;;5112331;28;19911;-74
2024/01/01 15:58:12;;;;;;;;;;;8.20;1.00;;;;;;5113026;28;19974;-74
2024/01/01 16:00:37;;;;;;;;;;;8.20;1.00;;;;;;5126166;28;19916;-74
2024/01/01 16:03:05;;;;;;;;;;;8.30;1.00;;;;;;5107731;28;19912;-75
2024/01/01 16:05:31;;;;;;;;;;;8.20;1.00;;;;;;5093927;28;19916;-75
2024/01/01 16:08:17;;;;;;;;;;;8.20;1.00;;;;;;5093970;28;19912;-78
2024/01/01 16:14:05;;;;;;;;;;;8.20;1.00;;;;;;5109069;28;20002;-84
2024/01/01 16:19:41;;;;;;;;;;;8.20;1.00;;;;;;5101799;28;19919;-79
2024/01/01 16:22:18;;;;;;;;;;;8.20;1.00;;;;;;5105832;28;19908;-83
2024/01/01 16:24:44;;;;;;;;;;;8.30;1.00;;;;;;5101444;28;19912;-81
2024/01/01 16:27:11;;;;;;;;;;;8.30;1.00;;;;;;5106451;28;19985;-81
2024/01/01 16:29:47;;;;;;;;;;;8.40;1.00;;;;;;5114847;28;19907;-77
2024/01/01 16:32:47;;;;;;;;;;;8.40;1.00;;;;;;5100695;28;20340;-78
2024/01/01 16:35:47;;;;;;;;;;;8.40;1.00;;;;;;5115294;27;19962;-80
2024/01/01 16:38:17;;;;;;;;;;;8.40;1.00;;;;;;5118002;28;19918;-79
2024/01/01 16:40:48;;;;;;;;;;;8.50;1.00;;;;;;5111437;27;19916;-92
2024/01/01 16:43:35;;;;;;;;;;;8.40;1.00;;;;;;5087739;28;20272;-75
2024/01/01 16:46:01;;;;;;;;;;;8.50;1.00;;;;;;5112763;27;19916;-76
2024/01/01 16:48:42;;;;;;;;;;;8.40;1.00;;;;;;5104305;28;20003;-77
2024/01/01 16:51:18;;;;;;;;;;;8.40;1.00;;;;;;5097103;28;20298;-79
2024/01/01 16:53:47;;;;;;;;;;;8.50;1.00;;;;;;5100710;28;19912;-80
2024/01/01 16:56:18;;;;;;;;;;;8.50;1.00;;;;;;5105671;27;19938;-76
2024/01/01 16:58:48;;;;;;;;;;;8.50;1.00;;;;;;5101839;27;19912;-77
2024/01/01 17:01:22;;;;;;;;;;;8.50;1.00;;;;;;5105981;28;19913;-76
2024/01/01 17:07:17;;;;;;;;;;;8.50;1.00;;;;;;5099327;28;20047;-78
2024/01/01 17:09:47;;;;;;;;;;;8.50;1.00;;;;;;5114768;27;19922;-77
2024/01/01 17:12:18;;;;;;;;;;;8.40;1.00;;;;;;5113794;28;20398;-77
2024/01/01 17:15:11;;;;;;;;;;;8.50;1.00;;;;;;5121220;27;19912;-82
2024/01/01 17:17:47;;;;;;;;;;;8.50;1.00;;;;;;5109130;28;19911;-81
2024/01/01 17:23:11;;;;;;;;;;;8.50;1.00;;;;;;5116442;27;20499;-80
2024/01/01 17:28:18;;;;;;;;;;;8.60;1.00;;;;;;5118193;27;19970;-79
2024/01/01 17:31:00;;;;;;;;;;;8.50;1.00;;;;;;5116471;27;19912;-79
2024/01/01 17:33:26;;;;;;;;;;;8.40;1.00;;;;;;5098477;27;20016;-80
2024/01/01 17:36:00;;;;;;;;;;;8.40;1.00;;;;;;5117836;27;20366;-78
2024/01/01 17:38:25;;;;;;;;;;;8.40;1.00;;;;;;5103470;28;20485;-78
2024/01/01 17:40:53;;;;;;;;;;;8.40;1.00;;;;;;5105344;27;19943;-78
2024/01/01 17:43:41;;;;;;;;;;;8.40;1.00;;;;;;5110344;27;19959;-78
2024/01/01 17:46:12;;;;;;;;;;;8.30;1.00;;;;;;5105059;28;20330;-81
2024/01/01 17:49:11;;;;;;;;;;;8.30;1.00;;;;;;5101778;28;19909;-85
2024/01/01 17:51:47;;;;;;;;;;;8.30;1.00;;;;;;5118246;27;19968;-81
2024/01/01 17:57:18;;;;;;;;;;;8.40;1.00;;;;;;5102691;28;19914;-82
2024/01/01 17:59:48;;;;;;;;;;;8.30;1.00;;;;;;5097263;28;20387;-80
2024/01/01 18:02:17;;;;;;;;;;;8.30;1.00;;;;;;5084553;28;20367;-81
2024/01/01 18:08:00;;;;;;;;;;;8.30;1.00;;;;;;5125145;27;19964;-78
2024/01/01 18:10:42;;;;;;;;;;;8.40;1.00;;;;;;5115035;28;19908;-76
2024/01/01 18:13:12;;;;;;;;;;;8.40;1.00;;;;;;5100477;28;19908;-76
2024/01/01 18:15:48;;;;;;;;;;;8.50;1.00;;;;;;5099229;28;19919;-76
2024/01/01 18:18:13;;;;;;;;;;;8.50;1.00;;;;;;5114334;28;20038;-75
2024/01/01 18:20:42;;;;;;;;;;;8.50;1.00;;;;;;5110280;27;19951;-75
2024/01/01 18:23:17;;;;;;;;;;;8.50;1.00;;;;;;5112118;28;19943;-76